Flight Track Log - Related Links

Times and Time Zones

All times are in EDT time to prevent confusion due to time zone crossing. See the PDT4147 flight status page for this flight to view local times or setup timezone preferences in your user account.

Time Position Orientation Groundspeed Altitude Reporting Facility
EDT Latitude Longitude Course Direction KTS MPH feet Rate Location/Type
Thu 15:00:14 35.1950 -80.9356 114° Southeast 140 161 1,400  Level Atlanta Center
Thu 15:01:15 35.1792 -80.8931 114° Southeast 174 200 2,500 1,180 Climbing Atlanta Center
Thu 15:02:16 35.1756 -80.8294 94° East 187 215 3,800 1,180 Climbing Atlanta Center
Thu 15:03:17 35.1739 -80.7636 92° East 190 219 4,900 1,033 Climbing Atlanta Center
Thu 15:04:18 35.1886 -80.6944 75° East 216 249 5,900 1,033 Climbing Atlanta Center
Thu 15:05:19 35.2203 -80.6347 57° Northeast 217 250 7,000 976 Climbing Atlanta Center
Thu 15:06:21 35.2519 -80.5722 58° Northeast 219 252 7,900 829 Climbing Atlanta Center
Thu 15:07:22 35.2833 -80.4947 64° Northeast 233 268 8,700 541 Climbing Atlanta Center
Thu 15:08:23 35.3144 -80.4169 64° Northeast 255 293 9,000 148 Climbing Atlanta Center
Thu 15:09:24 35.3514 -80.3339 61° Northeast 277 319 9,000  Level Atlanta Center
Thu 15:11:00 35.4180 -80.1845 61° Northeast  Level FlightAware Approximate
Thu 15:18:00 35.9824 -80.0594 North  Level FlightAware Approximate
Thu 15:19:00 36.0690 -80.0528 North  Level FlightAware Approximate
Thu 15:20:00 36.1556 -80.0461 North  Level FlightAware Approximate
Thu 15:21:00 36.2422 -80.0395 North  Level FlightAware Approximate
Thu 15:22:00 36.3288 -80.0328 North  Level FlightAware Approximate
Thu 15:23:00 36.4153 -80.0261 North  Level FlightAware Approximate
Thu 15:24:00 36.5019 -80.0193 North  Level FlightAware Approximate
Thu 15:25:00 36.5885 -80.0126 North  Level FlightAware Approximate
Thu 15:26:00 36.6751 -80.0059 North  Level FlightAware Approximate
Thu 15:27:00 36.7617 -80.0000 North  Level FlightAware Approximate
Thu 15:28:00 36.8484 -80.0000 North  Level FlightAware Approximate
Thu 15:29:00 36.9351 -79.9994 15° North  Level FlightAware Approximate
Thu 15:30:00 37.0202 -79.9833 North  Level FlightAware Approximate
Thu 15:31:00 37.1069 -79.9833 North  Level FlightAware Approximate
Thu 15:32:00 37.1935 -79.9813 North  Level FlightAware Approximate
Thu 15:33:00 37.2794 -79.9667 North  Level FlightAware Approximate
Thu 15:34:00 37.3167 -79.9667 North  Level FlightAware Approximate
Thu 15:35:00 37.3255 -79.9754 North  Level Estimated
Thu 15:36:00 37.3255 -79.9754 North  Level Estimated
Thu 15:37:00 37.3255 -79.9754 North  Level Estimated
Thu 15:38:00 37.3255 -79.9754 North  Level Estimated
Thu 15:39:00 37.3255 -79.9754 North  Level Estimated
Thu 15:40:00 37.3255 -79.9754 North  Level Estimated
Thu 15:41:00 37.3255 -79.9754 North  Level Estimated
Thu 15:42:00 37.3255 -79.9754 North  Level Estimated

Login

Don't have an account? Register now (free) for customized features, flight alerts, and more!